Time,TemperatureF,DewpointF,PressureIn,WindDirection,WindDirectionDegrees,WindSpeedMPH,WindSpeedGustMPH,Humidity,HourlyPrecipIn,Conditions,Clouds,dailyrainin,SoftwareType,DateUTC
2013-08-17 00:00:00,76.3,74.1,29.98,SW,227,0.0,0.0,93,0.00,,,0.08,Wunderground PWS Mod,2013-08-17 04:00:00,
2013-08-17 00:02:00,76.3,74.1,29.98,SW,227,0.0,0.0,93,0.00,,,0.08,Wunderground PWS Mod,2013-08-17 04:02:00,
2013-08-17 00:04:00,76.3,74.1,29.98,SW,227,0.0,0.0,93,0.00,,,0.08,Wunderground PWS Mod,2013-08-17 04:04:00,
2013-08-17 00:06:00,76.3,74.1,29.98,SW,227,0.0,0.0,93,0.00,,,0.08,Wunderground PWS Mod,2013-08-17 04:06:00,
2013-08-17 00:12:00,76.3,74.1,29.98,SW,227,0.0,0.0,93,0.00,,,0.08,Wunderground PWS Mod,2013-08-17 04:12:00,
2013-08-17 00:14:00,76.1,74.2,29.97,N/A,-737280,0.0,0.0,94,0.00,,,0.00,Wunderground PWS Mod,2013-08-17 04:14:00,
2013-08-17 00:18:00,76.3,74.1,29.98,SW,227,0.0,0.0,93,0.00,,,0.08,Wunderground PWS Mod,2013-08-17 04:18:00,
2013-08-17 00:24:00,76.3,74.1,29.97,SW,227,0.0,0.0,93,0.00,,,0.00,Wunderground PWS Mod,2013-08-17 04:24:00,
2013-08-17 00:30:00,76.1,73.9,29.97,SW,227,0.0,0.0,93,0.00,,,0.00,Wunderground PWS Mod,2013-08-17 04:30:00,
2013-08-17 00:36:00,76.1,73.9,29.97,SW,227,0.0,0.0,93,0.00,,,0.00,Wunderground PWS Mod,2013-08-17 04:36:00,
2013-08-17 00:40:00,76.1,74.2,29.97,SW,227,0.0,0.0,94,0.00,,,0.00,Wunderground PWS Mod,2013-08-17 04:40:00,
2013-08-17 00:46:00,76.1,74.2,29.97,SW,227,0.0,0.0,94,0.00,,,0.00,Wunderground PWS Mod,2013-08-17 04:46:00,
2013-08-17 00:48:00,76.1,74.2,29.97,N/A,-737280,0.0,0.0,94,0.00,,,0.00,Wunderground PWS Mod,2013-08-17 04:48:00,
2013-08-17 00:54:00,76.1,74.2,29.97,SW,227,0.0,0.0,94,0.00,,,0.00,Wunderground PWS Mod,2013-08-17 04:54:00,
2013-08-17 01:00:00,76.1,74.2,29.97,SW,227,0.0,0.0,94,0.00,,,0.00,Wunderground PWS Mod,2013-08-17 05:00:00,
2013-08-17 01:06:00,76.1,74.2,29.97,SW,227,0.0,0.0,94,0.00,,,0.00,Wunderground PWS Mod,2013-08-17 05:06:00,
2013-08-17 01:12:00,76.1,74.2,29.97,SW,227,0.0,0.0,94,0.00,,,0.00,Wunderground PWS Mod,2013-08-17 05:12:00,
2013-08-17 01:18:00,76.1,74.2,29.97,SW,227,0.0,0.0,94,0.00,,,0.00,Wunderground PWS Mod,2013-08-17 05:18:00,
2013-08-17 01:24:00,76.1,74.2,29.97,SW,227,0.0,0.0,94,0.00,,,0.00,Wunderground PWS Mod,2013-08-17 05:24:00,
2013-08-17 01:30:00,76.1,74.2,29.97,SW,227,0.0,0.0,94,0.00,,,0.00,Wunderground PWS Mod,2013-08-17 05:30:00,
2013-08-17 01:32:00,76.0,74.1,29.97,N/A,-737280,0.0,0.0,94,0.00,,,0.00,Wunderground PWS Mod,2013-08-17 05:32:00,
2013-08-17 01:36:00,76.1,74.2,29.97,SW,227,0.0,0.0,94,0.00,,,0.00,Wunderground PWS Mod,2013-08-17 05:36:00,
2013-08-17 01:42:00,76.0,74.1,29.97,SW,227,0.0,0.0,94,0.00,,,0.00,Wunderground PWS Mod,2013-08-17 05:42:00,
2013-08-17 01:48:00,76.0,74.1,29.97,SW,227,0.0,0.0,94,0.00,,,0.00,Wunderground PWS Mod,2013-08-17 05:48:00,
2013-08-17 01:54:00,76.0,74.1,29.97,SW,227,0.0,0.0,94,0.00,,,0.00,Wunderground PWS Mod,2013-08-17 05:54:00,
2013-08-17 02:00:00,76.0,74.1,29.97,SW,227,0.0,0.0,94,0.00,,,0.00,Wunderground PWS Mod,2013-08-17 06:00:00,
2013-08-17 02:06:00,76.0,74.1,29.97,SW,227,0.0,0.0,94,0.00,,,0.00,Wunderground PWS Mod,2013-08-17 06:06:00,
2013-08-17 02:08:00,75.6,73.8,29.96,N/A,-737280,0.0,0.0,94,0.00,,,0.00,Wunderground PWS Mod,2013-08-17 06:08:00,
2013-08-17 02:12:00,75.8,73.9,29.97,SW,227,0.0,0.0,94,0.00,,,0.00,Wunderground PWS Mod,2013-08-17 06:12:00,
2013-08-17 02:18:00,75.8,73.9,29.97,SW,227,0.0,0.0,94,0.00,,,0.00,Wunderground PWS Mod,2013-08-17 06:18:00,
2013-08-17 02:24:00,75.8,73.9,29.96,SW,227,0.0,0.0,94,0.00,,,0.00,Wunderground PWS Mod,2013-08-17 06:24:00,
2013-08-17 02:30:00,75.6,73.8,29.96,SW,227,0.0,0.0,94,0.00,,,0.00,Wunderground PWS Mod,2013-08-17 06:30:00,
2013-08-17 02:36:00,75.6,73.8,29.96,SW,227,0.0,0.0,94,0.00,,,0.00,Wunderground PWS Mod,2013-08-17 06:36:00,
2013-08-17 02:42:00,75.6,73.8,29.96,SW,227,0.0,0.0,94,0.00,,,0.00,Wunderground PWS Mod,2013-08-17 06:42:00,
2013-08-17 02:48:00,75.6,73.8,29.96,SW,227,0.0,0.0,94,0.00,,,0.00,Wunderground PWS Mod,2013-08-17 06:48:00,
2013-08-17 02:54:00,75.6,73.8,29.96,SW,227,0.0,0.0,94,0.00,,,0.00,Wunderground PWS Mod,2013-08-17 06:54:00,
2013-08-17 03:00:00,75.4,73.6,29.96,SW,227,0.0,0.0,94,0.00,,,0.00,Wunderground PWS Mod,2013-08-17 07:00:00,
2013-08-17 03:06:00,75.4,73.6,29.96,SW,227,0.0,0.0,94,0.00,,,0.00,Wunderground PWS Mod,2013-08-17 07:06:00,
2013-08-17 03:12:00,75.4,73.6,29.96,SW,227,0.0,0.0,94,0.00,,,0.00,Wunderground PWS Mod,2013-08-17 07:12:00,
2013-08-17 03:18:00,75.3,73.5,29.96,SW,227,0.0,0.0,94,0.00,,,0.00,Wunderground PWS Mod,2013-08-17 07:18:00,
2013-08-17 03:22:00,75.1,73.3,29.95,N/A,-737280,0.0,0.0,94,0.00,,,0.00,Wunderground PWS Mod,2013-08-17 07:22:00,
2013-08-17 03:24:00,75.3,73.5,29.95,SW,227,0.0,0.0,94,0.00,,,0.00,Wunderground PWS Mod,2013-08-17 07:24:00,
2013-08-17 03:30:00,75.1,73.3,29.95,SW,227,0.0,0.0,94,0.00,,,0.00,Wunderground PWS Mod,2013-08-17 07:30:00,
2013-08-17 03:36:00,75.3,73.5,29.95,SW,227,0.0,0.0,94,0.00,,,0.00,Wunderground PWS Mod,2013-08-17 07:36:00,
2013-08-17 03:42:00,75.1,73.3,29.95,SW,227,0.0,0.0,94,0.00,,,0.00,Wunderground PWS Mod,2013-08-17 07:42:00,
2013-08-17 03:48:00,75.1,73.3,29.95,SW,227,0.0,0.0,94,0.00,,,0.00,Wunderground PWS Mod,2013-08-17 07:48:00,
2013-08-17 03:54:00,75.1,73.6,29.95,SW,227,0.0,0.0,95,0.00,,,0.00,Wunderground PWS Mod,2013-08-17 07:54:00,
2013-08-17 04:00:00,75.1,73.3,29.95,SW,227,0.0,0.0,94,0.00,,,0.00,Wunderground PWS Mod,2013-08-17 08:00:00,
2013-08-17 04:04:00,74.9,73.4,29.95,N/A,-737280,0.0,0.0,95,0.00,,,0.00,Wunderground PWS Mod,2013-08-17 08:04:00,
2013-08-17 04:08:00,75.1,73.3,29.95,SW,227,0.0,0.0,94,0.00,,,0.00,Wunderground PWS Mod,2013-08-17 08:08:00,
2013-08-17 04:14:00,74.9,73.1,29.95,SW,227,0.0,0.0,94,0.00,,,0.00,Wunderground PWS Mod,2013-08-17 08:14:00,
2013-08-17 04:20:00,74.9,73.1,29.95,SW,227,0.0,0.0,94,0.00,,,0.00,Wunderground PWS Mod,2013-08-17 08:20:00,
2013-08-17 04:26:00,74.9,73.4,29.95,SW,227,0.0,0.0,95,0.00,,,0.00,Wunderground PWS Mod,2013-08-17 08:26:00,
2013-08-17 04:30:00,74.7,73.2,29.95,N/A,-737280,0.0,0.0,95,0.00,,,0.00,Wunderground PWS Mod,2013-08-17 08:30:00,
2013-08-17 04:32:00,74.7,73.2,29.95,N/A,-737280,0.0,0.0,95,0.00,,,0.00,Wunderground PWS Mod,2013-08-17 08:32:00,
2013-08-17 04:41:00,74.7,73.2,29.95,SW,227,0.0,0.0,95,0.00,,,0.00,Wunderground PWS Mod,2013-08-17 08:41:00,
2013-08-17 04:46:00,74.7,73.2,29.95,SW,227,0.0,0.0,95,0.00,,,0.00,Wunderground PWS Mod,2013-08-17 08:46:00,
2013-08-17 04:53:00,74.7,73.2,29.95,SW,227,0.0,0.0,95,0.00,,,0.00,Wunderground PWS Mod,2013-08-17 08:53:00,
2013-08-17 04:58:00,74.6,73.1,29.95,N/A,-737280,0.0,0.0,95,0.00,,,0.00,Wunderground PWS Mod,2013-08-17 08:58:00,
2013-08-17 04:59:00,74.7,73.2,29.95,SW,227,0.0,0.0,95,0.00,,,0.00,Wunderground PWS Mod,2013-08-17 08:59:00,
2013-08-17 05:05:00,74.6,73.1,29.95,SW,227,0.0,0.0,95,0.00,,,0.00,Wunderground PWS Mod,2013-08-17 09:05:00,
2013-08-17 05:12:00,74.6,73.1,29.95,SW,227,0.0,0.0,95,0.00,,,0.00,Wunderground PWS Mod,2013-08-17 09:12:00,
2013-08-17 05:18:00,74.6,73.1,29.95,SW,227,0.0,0.0,95,0.00,,,0.00,Wunderground PWS Mod,2013-08-17 09:18:00,
2013-08-17 05:24:00,74.6,73.1,29.95,SW,227,0.0,0.0,95,0.00,,,0.00,Wunderground PWS Mod,2013-08-17 09:24:00,
2013-08-17 05:30:00,74.6,73.1,29.95,SW,227,0.0,0.0,95,0.00,,,0.00,Wunderground PWS Mod,2013-08-17 09:30:00,
2013-08-17 05:37:00,74.6,73.1,29.95,SW,227,0.0,0.0,95,0.00,,,0.00,Wunderground PWS Mod,2013-08-17 09:37:00,
2013-08-17 05:44:00,74.6,73.1,29.95,SW,227,0.0,0.0,95,0.00,,,0.00,Wunderground PWS Mod,2013-08-17 09:44:00,
2013-08-17 05:51:00,74.6,73.1,29.95,SW,227,0.0,0.0,95,0.00,,,0.00,Wunderground PWS Mod,2013-08-17 09:51:00,
2013-08-17 05:57:00,74.6,73.1,29.95,SW,227,0.0,0.0,95,0.00,,,0.00,Wunderground PWS Mod,2013-08-17 09:57:00,
2013-08-17 06:00:00,74.6,73.1,29.96,N/A,-737280,0.0,0.0,95,0.00,,,0.00,Wunderground PWS Mod,2013-08-17 10:00:00,
2013-08-17 06:03:00,74.7,73.2,29.95,SW,227,0.0,0.0,95,0.00,,,0.00,Wunderground PWS Mod,2013-08-17 10:03:00,
2013-08-17 06:09:00,74.7,73.2,29.95,SW,227,0.0,0.0,95,0.00,,,0.00,Wunderground PWS Mod,2013-08-17 10:09:00,
2013-08-17 06:16:00,74.6,73.1,29.95,SW,227,0.0,0.0,95,0.00,,,0.00,Wunderground PWS Mod,2013-08-17 10:16:00,
2013-08-17 06:22:00,74.6,73.1,29.96,SW,227,0.0,0.0,95,0.00,,,0.00,Wunderground PWS Mod,2013-08-17 10:22:00,
2013-08-17 06:28:00,74.6,73.1,29.96,SW,227,0.0,0.0,95,0.00,,,0.00,Wunderground PWS Mod,2013-08-17 10:28:00,
2013-08-17 06:32:00,74.6,73.1,29.96,N/A,-737280,0.0,0.0,95,0.00,,,0.00,Wunderground PWS Mod,2013-08-17 10:32:00,
2013-08-17 06:34:00,74.6,73.1,29.96,SW,227,0.0,0.0,95,0.00,,,0.00,Wunderground PWS Mod,2013-08-17 10:34:00,
2013-08-17 06:41:00,74.6,73.1,29.96,SW,227,0.0,0.0,95,0.00,,,0.00,Wunderground PWS Mod,2013-08-17 10:41:00,
2013-08-17 06:46:00,74.6,73.1,29.96,SW,227,0.0,0.0,95,0.00,,,0.00,Wunderground PWS Mod,2013-08-17 10:46:00,
2013-08-17 06:53:00,74.6,73.1,29.96,SW,227,0.0,0.0,95,0.00,,,0.00,Wunderground PWS Mod,2013-08-17 10:53:00,
2013-08-17 06:59:00,74.6,73.1,29.96,SW,227,0.0,0.0,95,0.00,,,0.00,Wunderground PWS Mod,2013-08-17 10:59:00,
2013-08-17 07:00:00,74.7,73.2,29.97,N/A,-737280,0.0,0.0,95,0.00,,,0.00,Wunderground PWS Mod,2013-08-17 11:00:00,
2013-08-17 07:05:00,74.6,73.1,29.96,SW,227,0.0,0.0,95,0.00,,,0.00,Wunderground PWS Mod,2013-08-17 11:05:00,
2013-08-17 07:11:00,74.6,73.1,29.96,SW,227,0.0,0.0,95,0.00,,,0.00,Wunderground PWS Mod,2013-08-17 11:11:00,
2013-08-17 07:18:00,74.7,73.2,29.96,SW,227,0.0,0.0,95,0.00,,,0.00,Wunderground PWS Mod,2013-08-17 11:18:00,
2013-08-17 07:24:00,74.9,73.4,29.97,SW,227,0.0,0.0,95,0.00,,,0.00,Wunderground PWS Mod,2013-08-17 11:24:00,
2013-08-17 07:30:00,75.1,73.6,29.97,SW,227,0.0,0.0,95,0.00,,,0.00,Wunderground PWS Mod,2013-08-17 11:30:00,
2013-08-17 07:37:00,75.3,73.8,29.97,SW,227,0.0,0.0,95,0.00,,,0.00,Wunderground PWS Mod,2013-08-17 11:37:00,
2013-08-17 07:43:00,75.4,73.9,29.97,SW,227,0.0,0.0,95,0.00,,,0.00,Wunderground PWS Mod,2013-08-17 11:43:00,
2013-08-17 07:48:00,75.8,74.3,29.97,SW,227,0.0,0.0,95,0.00,,,0.00,Wunderground PWS Mod,2013-08-17 11:48:00,
2013-08-17 07:50:00,77.2,75.7,29.97,N/A,-737280,0.0,0.0,95,0.00,,,0.00,Wunderground PWS Mod,2013-08-17 11:50:00,
2013-08-17 07:55:00,76.0,74.5,29.97,SW,227,0.0,0.0,95,0.00,,,0.00,Wunderground PWS Mod,2013-08-17 11:55:00,
2013-08-17 08:01:00,76.3,74.8,29.97,SW,227,0.0,0.0,95,0.00,,,0.00,Wunderground PWS Mod,2013-08-17 12:01:00,
2013-08-17 08:07:00,76.8,75.3,29.97,SW,227,0.0,0.0,95,0.00,,,0.00,Wunderground PWS Mod,2013-08-17 12:07:00,
2013-08-17 08:14:00,77.4,75.9,29.97,SW,227,0.0,0.0,95,0.00,,,0.00,Wunderground PWS Mod,2013-08-17 12:14:00,
2013-08-17 08:20:00,77.7,76.2,29.97,SW,227,0.0,0.0,95,0.00,,,0.00,Wunderground PWS Mod,2013-08-17 12:20:00,
2013-08-17 08:24:00,79.9,78.3,29.98,N/A,-737280,0.0,0.0,95,0.00,,,0.00,Wunderground PWS Mod,2013-08-17 12:24:00,
2013-08-17 08:26:00,78.3,77.1,29.98,SW,227,0.0,0.0,96,0.00,,,0.00,Wunderground PWS Mod,2013-08-17 12:26:00,
2013-08-17 08:33:00,78.8,77.6,29.98,SW,227,0.0,0.0,96,0.00,,,0.00,Wunderground PWS Mod,2013-08-17 12:33:00,
2013-08-17 08:39:00,79.4,78.2,29.98,SSE,149,0.0,0.0,96,0.00,,,0.00,Wunderground PWS Mod,2013-08-17 12:39:00,
2013-08-17 08:46:00,79.9,78.3,29.98,SSE,149,0.0,0.0,95,0.00,,,0.00,Wunderground PWS Mod,2013-08-17 12:46:00,
2013-08-17 08:53:00,80.3,78.7,29.98,SSE,149,0.0,0.0,95,0.00,,,0.00,Wunderground PWS Mod,2013-08-17 12:53:00,
2013-08-17 08:56:00,82.0,80.4,29.98,N/A,-737280,0.0,0.0,95,0.00,,,0.00,Wunderground PWS Mod,2013-08-17 12:56:00,
2013-08-17 08:57:00,80.7,79.1,29.98,SSE,152,0.0,0.0,95,0.00,,,0.00,Wunderground PWS Mod,2013-08-17 12:57:00,
2013-08-17 09:03:00,81.2,79.6,29.98,NNW,342,0.0,0.0,95,0.00,,,0.00,Wunderground PWS Mod,2013-08-17 13:03:00,
2013-08-17 09:09:00,81.2,79.6,29.98,North,355,0.0,3.0,95,0.00,,,0.00,Wunderground PWS Mod,2013-08-17 13:09:00,
2013-08-17 09:16:00,81.6,80.0,29.98,North,360,0.0,0.0,95,0.00,,,0.00,Wunderground PWS Mod,2013-08-17 13:16:00,
2013-08-17 09:22:00,82.2,80.3,29.98,North,9,0.0,0.0,94,0.00,,,0.00,Wunderground PWS Mod,2013-08-17 13:22:00,
2013-08-17 09:24:00,83.4,80.2,29.99,SSE,158,0.0,1.0,90,0.00,,,0.00,Wunderground PWS Mod,2013-08-17 13:24:00,
2013-08-17 09:28:00,82.6,80.7,29.98,SSW,203,0.0,0.0,94,0.00,,,0.00,Wunderground PWS Mod,2013-08-17 13:28:00,
2013-08-17 09:34:00,83.0,80.8,29.98,NNW,327,0.0,0.0,93,0.00,,,0.00,Wunderground PWS Mod,2013-08-17 13:34:00,
2013-08-17 09:41:00,83.2,80.3,29.98,NNW,327,0.0,0.0,91,0.00,,,0.00,Wunderground PWS Mod,2013-08-17 13:41:00,
2013-08-17 09:46:00,83.4,80.2,29.98,SSE,164,0.0,0.0,90,0.00,,,0.00,Wunderground PWS Mod,2013-08-17 13:46:00,
2013-08-17 09:52:00,83.4,79.1,29.99,SSE,148,0.0,2.0,87,0.00,,,0.00,Wunderground PWS Mod,2013-08-17 13:52:00,
2013-08-17 09:54:00,84.3,78.6,29.99,NE,45,0.0,1.0,83,0.00,,,0.00,Wunderground PWS Mod,2013-08-17 13:54:00,
2013-08-17 09:59:00,83.4,78.8,29.99,SSE,149,0.0,0.0,86,0.00,,,0.00,Wunderground PWS Mod,2013-08-17 13:59:00,
2013-08-17 10:05:00,83.8,78.8,29.99,SSE,150,0.0,0.0,85,0.00,,,0.00,Wunderground PWS Mod,2013-08-17 14:05:00,
2013-08-17 10:12:00,84.1,79.1,29.99,ENE,66,0.0,0.0,85,0.00,,,0.00,Wunderground PWS Mod,2013-08-17 14:12:00,
2013-08-17 10:18:00,84.5,78.8,29.99,NNW,344,0.0,4.0,83,0.00,,,0.00,Wunderground PWS Mod,2013-08-17 14:18:00,
2013-08-17 10:22:00,86.6,78.5,29.99,East,90,0.0,1.0,77,0.00,,,0.00,Wunderground PWS Mod,2013-08-17 14:22:00,
2013-08-17 10:24:00,85.1,78.6,29.99,ESE,110,1.0,2.0,81,0.00,,,0.00,Wunderground PWS Mod,2013-08-17 14:24:00,
2013-08-17 10:30:00,85.9,78.6,29.99,ESE,114,0.0,2.0,79,0.00,,,0.00,Wunderground PWS Mod,2013-08-17 14:30:00,
2013-08-17 10:37:00,86.1,78.0,29.99,NW,324,0.0,3.0,77,0.00,,,0.00,Wunderground PWS Mod,2013-08-17 14:37:00,
2013-08-17 10:43:00,86.5,78.0,29.99,NNE,19,0.0,1.0,76,0.00,,,0.00,Wunderground PWS Mod,2013-08-17 14:43:00,
2013-08-17 10:49:00,87.4,78.9,29.99,WSW,256,0.0,1.0,76,0.00,,,0.00,Wunderground PWS Mod,2013-08-17 14:49:00,
2013-08-17 10:52:00,88.6,76.7,29.99,N/A,-737280,0.0,0.0,68,0.00,,,0.00,Wunderground PWS Mod,2013-08-17 14:52:00,
2013-08-17 10:55:00,88.0,77.8,29.99,WSW,248,0.0,0.0,72,0.00,,,0.00,Wunderground PWS Mod,2013-08-17 14:55:00,
2013-08-17 11:02:00,88.2,78.0,29.99,ENE,60,0.0,7.0,72,0.00,,,0.00,Wunderground PWS Mod,2013-08-17 15:02:00,
2013-08-17 11:08:00,88.4,77.4,29.99,WSW,240,0.0,1.0,70,0.00,,,0.00,Wunderground PWS Mod,2013-08-17 15:08:00,
2013-08-17 11:14:00,88.6,78.0,29.99,WSW,240,0.0,0.0,71,0.00,,,0.00,Wunderground PWS Mod,2013-08-17 15:14:00,
2013-08-17 11:16:00,89.9,76.6,29.99,N/A,-737280,0.0,0.0,65,0.00,,,0.00,Wunderground PWS Mod,2013-08-17 15:16:00,
2013-08-17 11:21:00,89.7,77.3,29.99,NNE,30,0.0,3.0,67,0.00,,,0.00,Wunderground PWS Mod,2013-08-17 15:21:00,
2013-08-17 11:27:00,90.3,76.9,29.99,SW,236,0.0,2.0,65,0.00,,,0.00,Wunderground PWS Mod,2013-08-17 15:27:00,
2013-08-17 11:33:00,90.5,77.1,29.99,WSW,237,0.0,0.0,65,0.00,,,0.00,Wunderground PWS Mod,2013-08-17 15:33:00,
2013-08-17 11:38:00,88.2,76.7,29.99,N/A,-737280,0.0,0.0,69,0.00,,,0.00,Wunderground PWS Mod,2013-08-17 15:38:00,
2013-08-17 11:39:00,89.9,76.6,29.99,SE,144,0.0,2.0,65,0.00,,,0.00,Wunderground PWS Mod,2013-08-17 15:39:00,
2013-08-17 11:46:00,89.0,76.2,29.99,NNE,16,0.0,2.0,66,0.00,,,0.00,Wunderground PWS Mod,2013-08-17 15:46:00,
2013-08-17 11:52:00,88.4,76.5,29.98,SW,232,0.0,2.0,68,0.00,,,0.00,Wunderground PWS Mod,2013-08-17 15:52:00,
2013-08-17 11:58:00,88.2,76.7,29.98,SW,232,0.0,0.0,69,0.00,,,0.00,Wunderground PWS Mod,2013-08-17 15:58:00,
2013-08-17 12:00:00,89.9,75.6,29.98,WSW,248,0.0,1.0,63,0.00,,,0.00,Wunderground PWS Mod,2013-08-17 16:00:00,
2013-08-17 12:05:00,88.8,77.3,29.98,SW,232,0.0,0.0,69,0.00,,,0.00,Wunderground PWS Mod,2013-08-17 16:05:00,
2013-08-17 12:11:00,89.3,76.0,29.98,WSW,243,0.0,0.0,65,0.00,,,0.00,Wunderground PWS Mod,2013-08-17 16:11:00,
2013-08-17 12:17:00,89.7,77.3,29.98,WSW,243,0.0,0.0,67,0.00,,,0.00,Wunderground PWS Mod,2013-08-17 16:17:00,
2013-08-17 12:20:00,91.4,75.6,29.97,N/A,-737280,0.0,0.0,60,0.00,,,0.00,Wunderground PWS Mod,2013-08-17 16:20:00,
2013-08-17 12:24:00,90.1,76.3,29.98,WSW,242,0.0,4.0,64,0.00,,,0.00,Wunderground PWS Mod,2013-08-17 16:24:00,
2013-08-17 12:30:00,90.1,75.3,29.98,WSW,242,0.0,1.0,62,0.00,,,0.00,Wunderground PWS Mod,2013-08-17 16:30:00,
2013-08-17 12:36:00,90.7,75.9,29.98,SSW,212,0.0,1.0,62,0.00,,,0.00,Wunderground PWS Mod,2013-08-17 16:36:00,
2013-08-17 12:42:00,91.4,75.6,29.97,WSW,248,0.0,2.0,60,0.00,,,0.00,Wunderground PWS Mod,2013-08-17 16:42:00,
2013-08-17 12:44:00,92.9,74.4,29.97,N/A,-737280,0.0,0.0,55,0.00,,,0.00,Wunderground PWS Mod,2013-08-17 16:44:00,
2013-08-17 12:46:00,93.2,74.6,29.97,N/A,-737280,0.0,0.0,55,0.00,,,0.00,Wunderground PWS Mod,2013-08-17 16:46:00,
2013-08-17 12:48:00,93.2,76.2,29.97,N/A,-737280,0.0,0.0,58,0.00,,,0.00,Wunderground PWS Mod,2013-08-17 16:48:00,
2013-08-17 12:49:00,92.1,75.7,29.97,NNW,327,0.0,3.0,59,0.00,,,0.00,Wunderground PWS Mod,2013-08-17 16:49:00,
2013-08-17 12:50:00,93.4,74.8,29.97,N/A,-737280,0.0,0.0,55,0.00,,,0.00,Wunderground PWS Mod,2013-08-17 16:50:00,
2013-08-17 12:52:00,93.2,73.5,29.97,N/A,-737280,0.0,0.0,53,0.00,,,0.00,Wunderground PWS Mod,2013-08-17 16:52:00,
2013-08-17 12:54:00,92.5,74.5,29.97,SSW,199,0.0,1.0,56,0.00,,,0.00,Wunderground PWS Mod,2013-08-17 16:54:00,
2013-08-17 13:01:00,92.7,72.5,29.97,SSW,213,0.0,2.0,52,0.00,,,0.00,Wunderground PWS Mod,2013-08-17 17:01:00,
2013-08-17 13:07:00,93.2,74.6,29.97,North,360,1.0,1.0,55,0.00,,,0.00,Wunderground PWS Mod,2013-08-17 17:07:00,
2013-08-17 13:13:00,93.4,74.8,29.97,NNW,338,0.0,0.0,55,0.00,,,0.00,Wunderground PWS Mod,2013-08-17 17:13:00,
2013-08-17 13:18:00,92.3,75.4,29.96,N/A,-737280,0.0,0.0,58,0.00,,,0.00,Wunderground PWS Mod,2013-08-17 17:18:00,
2013-08-17 13:20:00,92.7,74.7,29.97,WNW,284,0.0,0.0,56,0.00,,,0.00,Wunderground PWS Mod,2013-08-17 17:20:00,
2013-08-17 13:26:00,92.5,72.9,29.96,WSW,240,0.0,0.0,53,0.00,,,0.00,Wunderground PWS Mod,2013-08-17 17:26:00,
2013-08-17 13:32:00,92.7,73.6,29.96,West,274,0.0,2.0,54,0.00,,,0.00,Wunderground PWS Mod,2013-08-17 17:32:00,
2013-08-17 13:38:00,92.3,75.9,29.96,SE,137,0.0,0.0,59,0.00,,,0.00,Wunderground PWS Mod,2013-08-17 17:38:00,
2013-08-17 13:42:00,93.4,74.8,29.95,N/A,-737280,0.0,0.0,55,0.00,,,0.00,Wunderground PWS Mod,2013-08-17 17:42:00,
2013-08-17 13:44:00,92.1,74.7,29.96,SE,139,0.0,0.0,57,0.00,,,0.00,Wunderground PWS Mod,2013-08-17 17:44:00,
2013-08-17 13:51:00,92.3,74.9,29.96,SE,139,0.0,0.0,57,0.00,,,0.00,Wunderground PWS Mod,2013-08-17 17:51:00,
2013-08-17 13:57:00,92.5,73.4,29.95,SW,228,0.0,0.0,54,0.00,,,0.00,Wunderground PWS Mod,2013-08-17 17:57:00,
2013-08-17 14:03:00,93.4,74.3,29.95,SW,228,0.0,3.0,54,0.00,,,0.00,Wunderground PWS Mod,2013-08-17 18:03:00,
2013-08-17 14:09:00,93.6,73.9,29.95,SSE,162,0.0,1.0,53,0.00,,,0.00,Wunderground PWS Mod,2013-08-17 18:09:00,
2013-08-17 14:14:00,94.7,72.0,29.94,N/A,-737280,0.0,0.0,48,0.00,,,0.00,Wunderground PWS Mod,2013-08-17 18:14:00,
2013-08-17 14:16:00,93.4,74.3,29.95,NNW,345,0.0,2.0,54,0.00,,,0.00,Wunderground PWS Mod,2013-08-17 18:16:00,
2013-08-17 14:22:00,93.6,73.3,29.94,North,350,0.0,1.0,52,0.00,,,0.00,Wunderground PWS Mod,2013-08-17 18:22:00,
2013-08-17 14:28:00,94.3,71.6,29.94,NW,315,0.0,3.0,48,0.00,,,0.00,Wunderground PWS Mod,2013-08-17 18:28:00,
2013-08-17 14:35:00,94.7,72.6,29.94,NE,36,0.0,3.0,49,0.00,,,0.00,Wunderground PWS Mod,2013-08-17 18:35:00,
2013-08-17 14:41:00,94.9,73.9,29.94,WNW,287,0.0,1.0,51,0.00,,,0.00,Wunderground PWS Mod,2013-08-17 18:41:00,
2013-08-17 14:42:00,94.4,72.9,29.93,N/A,-737280,0.0,0.0,50,0.00,,,0.00,Wunderground PWS Mod,2013-08-17 18:42:00,
2013-08-17 14:44:00,94.0,73.1,29.93,N/A,-737280,0.0,0.0,51,0.00,,,0.00,Wunderground PWS Mod,2013-08-17 18:44:00,
2013-08-17 14:46:00,95.1,71.1,29.94,WNW,288,0.0,1.0,46,0.00,,,0.00,Wunderground PWS Mod,2013-08-17 18:46:00,
2013-08-17 14:52:00,94.5,72.4,29.93,West,265,0.0,0.0,49,0.00,,,0.00,Wunderground PWS Mod,2013-08-17 18:52:00,
2013-08-17 14:59:00,94.7,70.7,29.93,SSE,155,1.0,1.0,46,0.00,,,0.00,Wunderground PWS Mod,2013-08-17 18:59:00,
2013-08-17 15:05:00,94.3,72.8,29.93,ENE,67,0.0,1.0,50,0.00,,,0.00,Wunderground PWS Mod,2013-08-17 19:05:00,
2013-08-17 15:11:00,93.4,73.1,29.92,East,94,0.0,0.0,52,0.00,,,0.00,Wunderground PWS Mod,2013-08-17 19:11:00,
2013-08-17 15:12:00,90.2,74.4,29.92,N/A,-737280,0.0,0.0,60,0.00,,,0.00,Wunderground PWS Mod,2013-08-17 19:12:00,
2013-08-17 15:18:00,93.2,74.1,29.92,East,94,0.0,0.0,54,0.00,,,0.00,Wunderground PWS Mod,2013-08-17 19:18:00,
2013-08-17 15:24:00,92.5,73.4,29.92,NNE,17,0.0,1.0,54,0.00,,,0.00,Wunderground PWS Mod,2013-08-17 19:24:00,
2013-08-17 15:30:00,91.2,73.8,29.92,SSW,202,0.0,4.0,57,0.00,,,0.00,Wunderground PWS Mod,2013-08-17 19:30:00,
2013-08-17 15:37:00,89.7,74.5,29.92,NE,53,0.0,0.0,61,0.00,,,0.00,Wunderground PWS Mod,2013-08-17 19:37:00,
2013-08-17 15:40:00,81.3,74.2,29.94,N/A,-737280,0.0,0.0,79,0.02,,,0.02,Wunderground PWS Mod,2013-08-17 19:40:00,
2013-08-17 15:43:00,87.4,74.6,29.93,SW,236,0.0,3.0,66,0.00,,,0.00,Wunderground PWS Mod,2013-08-17 19:43:00,
2013-08-17 15:48:00,85.1,73.8,29.93,SSE,156,1.0,1.0,69,0.00,,,0.00,Wunderground PWS Mod,2013-08-17 19:48:00,
2013-08-17 15:55:00,83.2,73.2,29.94,South,184,0.0,1.0,72,0.00,,,0.00,Wunderground PWS Mod,2013-08-17 19:55:00,
2013-08-17 16:01:00,81.6,74.1,29.94,South,176,0.0,0.0,78,0.00,,,0.01,Wunderground PWS Mod,2013-08-17 20:01:00,
2013-08-17 16:06:00,78.1,73.9,29.95,N/A,-737280,0.0,0.0,87,0.03,,,0.03,Wunderground PWS Mod,2013-08-17 20:06:00,
2013-08-17 16:07:00,80.5,74.5,29.93,South,176,0.0,0.0,82,0.10,,,0.02,Wunderground PWS Mod,2013-08-17 20:07:00,
2013-08-17 16:14:00,79.8,74.9,29.93,South,176,0.0,0.0,85,0.08,,,0.03,Wunderground PWS Mod,2013-08-17 20:14:00,
2013-08-17 16:20:00,78.8,73.9,29.93,South,176,0.0,3.0,85,0.05,,,0.03,Wunderground PWS Mod,2013-08-17 20:20:00,
2013-08-17 16:26:00,78.1,73.6,29.95,South,186,0.0,0.0,86,0.00,,,0.03,Wunderground PWS Mod,2013-08-17 20:26:00,
2013-08-17 16:32:00,77.9,73.7,29.95,South,186,0.0,1.0,87,0.00,,,0.03,Wunderground PWS Mod,2013-08-17 20:32:00,
2013-08-17 16:34:00,77.4,73.6,29.93,N/A,-737280,0.0,0.0,88,0.02,,,0.03,Wunderground PWS Mod,2013-08-17 20:34:00,
2013-08-17 16:39:00,77.7,73.5,29.93,South,186,0.0,0.0,87,0.00,,,0.03,Wunderground PWS Mod,2013-08-17 20:39:00,
2013-08-17 16:46:00,77.6,73.8,29.93,South,186,0.0,0.0,88,0.00,,,0.03,Wunderground PWS Mod,2013-08-17 20:46:00,
2013-08-17 16:53:00,77.4,73.6,29.93,South,186,0.0,0.0,88,0.00,,,0.03,Wunderground PWS Mod,2013-08-17 20:53:00,
2013-08-17 16:59:00,77.6,73.8,29.93,South,186,0.0,0.0,88,0.00,,,0.03,Wunderground PWS Mod,2013-08-17 20:59:00,
2013-08-17 17:02:00,78.1,74.6,29.92,N/A,-737280,0.0,0.0,89,0.00,,,0.03,Wunderground PWS Mod,2013-08-17 21:02:00,
2013-08-17 17:05:00,77.7,73.9,29.93,South,186,0.0,0.0,88,0.00,,,0.03,Wunderground PWS Mod,2013-08-17 21:05:00,
2013-08-17 17:11:00,77.9,74.1,29.92,South,186,0.0,0.0,88,0.00,,,0.03,Wunderground PWS Mod,2013-08-17 21:11:00,
2013-08-17 17:18:00,77.9,74.4,29.92,South,186,0.0,0.0,89,0.00,,,0.03,Wunderground PWS Mod,2013-08-17 21:18:00,
2013-08-17 17:24:00,78.1,74.6,29.93,South,186,0.0,0.0,89,0.00,,,0.03,Wunderground PWS Mod,2013-08-17 21:24:00,
2013-08-17 17:28:00,79.6,75.7,29.93,N/A,-737280,0.0,0.0,88,0.00,,,0.03,Wunderground PWS Mod,2013-08-17 21:28:00,
2013-08-17 17:30:00,78.6,75.4,29.93,South,186,0.0,0.0,90,0.00,,,0.03,Wunderground PWS Mod,2013-08-17 21:30:00,
2013-08-17 17:36:00,78.8,75.3,29.93,South,186,0.0,0.0,89,0.00,,,0.03,Wunderground PWS Mod,2013-08-17 21:36:00,
2013-08-17 17:43:00,79.2,75.3,29.93,South,186,0.0,0.0,88,0.00,,,0.03,Wunderground PWS Mod,2013-08-17 21:43:00,
2013-08-17 17:48:00,79.6,75.7,29.93,South,186,0.0,0.0,88,0.00,,,0.03,Wunderground PWS Mod,2013-08-17 21:48:00,
2013-08-17 17:54:00,79.8,75.9,29.93,South,186,0.0,0.0,88,0.00,,,0.03,Wunderground PWS Mod,2013-08-17 21:54:00,
2013-08-17 18:01:00,80.1,75.9,29.93,South,186,0.0,0.0,87,0.00,,,0.03,Wunderground PWS Mod,2013-08-17 22:01:00,
2013-08-17 18:04:00,80.7,75.8,29.95,N/A,-737280,0.0,0.0,85,0.00,,,0.03,Wunderground PWS Mod,2013-08-17 22:04:00,
2013-08-17 18:07:00,80.3,76.1,29.93,South,186,0.0,0.0,87,0.00,,,0.03,Wunderground PWS Mod,2013-08-17 22:07:00,
2013-08-17 18:13:00,80.5,76.3,29.93,South,186,0.0,0.0,87,0.00,,,0.03,Wunderground PWS Mod,2013-08-17 22:13:00,
2013-08-17 18:20:00,80.7,76.1,29.93,South,186,0.0,0.0,86,0.00,,,0.03,Wunderground PWS Mod,2013-08-17 22:20:00,
2013-08-17 18:26:00,80.7,75.8,29.95,South,186,0.0,0.0,85,0.00,,,0.03,Wunderground PWS Mod,2013-08-17 22:26:00,
2013-08-17 18:28:00,80.9,76.3,29.95,N/A,-737280,0.0,0.0,86,0.00,,,0.03,Wunderground PWS Mod,2013-08-17 22:28:00,
2013-08-17 18:33:00,81.1,76.2,29.95,South,186,0.0,0.0,85,0.00,,,0.03,Wunderground PWS Mod,2013-08-17 22:33:00,
2013-08-17 18:39:00,81.1,76.5,29.95,South,186,0.0,0.0,86,0.00,,,0.03,Wunderground PWS Mod,2013-08-17 22:39:00,
2013-08-17 18:45:00,81.1,76.5,29.95,South,186,0.0,0.0,86,0.00,,,0.03,Wunderground PWS Mod,2013-08-17 22:45:00,
2013-08-17 18:51:00,80.9,76.3,29.95,South,186,0.0,0.0,86,0.00,,,0.03,Wunderground PWS Mod,2013-08-17 22:51:00,
2013-08-17 18:58:00,81.1,76.5,29.95,South,186,0.0,0.0,86,0.00,,,0.03,Wunderground PWS Mod,2013-08-17 22:58:00,
2013-08-17 19:02:00,81.2,76.6,29.95,N/A,-737280,0.0,0.0,86,0.00,,,0.03,Wunderground PWS Mod,2013-08-17 23:02:00,
2013-08-17 19:04:00,81.1,76.2,29.95,South,186,0.0,0.0,85,0.00,,,0.03,Wunderground PWS Mod,2013-08-17 23:04:00,
2013-08-17 19:10:00,81.2,76.6,29.95,South,186,0.0,0.0,86,0.00,,,0.03,Wunderground PWS Mod,2013-08-17 23:10:00,
2013-08-17 19:16:00,81.2,76.6,29.95,South,186,0.0,0.0,86,0.00,,,0.03,Wunderground PWS Mod,2013-08-17 23:16:00,
2013-08-17 19:23:00,81.2,76.6,29.95,South,186,0.0,0.0,86,0.00,,,0.03,Wunderground PWS Mod,2013-08-17 23:23:00,
2013-08-17 19:28:00,80.7,76.5,29.95,N/A,-737280,0.0,0.0,87,0.00,,,0.03,Wunderground PWS Mod,2013-08-17 23:28:00,
2013-08-17 19:29:00,81.2,76.6,29.95,South,186,0.0,0.0,86,0.00,,,0.03,Wunderground PWS Mod,2013-08-17 23:29:00,
2013-08-17 19:35:00,81.1,76.5,29.95,South,186,0.0,0.0,86,0.00,,,0.03,Wunderground PWS Mod,2013-08-17 23:35:00,
2013-08-17 19:42:00,80.9,76.3,29.95,South,186,0.0,0.0,86,0.00,,,0.03,Wunderground PWS Mod,2013-08-17 23:42:00,
2013-08-17 19:50:00,80.7,76.5,29.95,South,186,0.0,0.0,87,0.00,,,0.03,Wunderground PWS Mod,2013-08-17 23:50:00,
2013-08-17 19:56:00,80.5,76.3,29.97,South,186,0.0,0.0,87,0.00,,,0.03,Wunderground PWS Mod,2013-08-17 23:56:00,
2013-08-17 20:03:00,80.3,76.1,29.97,South,186,0.0,0.0,87,0.00,,,0.03,Wunderground PWS Mod,2013-08-18 00:03:00,
2013-08-17 20:09:00,80.1,75.9,29.97,South,186,0.0,0.0,87,0.00,,,0.03,Wunderground PWS Mod,2013-08-18 00:09:00,
2013-08-17 20:15:00,79.9,75.7,29.97,South,186,0.0,0.0,87,0.00,,,0.03,Wunderground PWS Mod,2013-08-18 00:15:00,
2013-08-17 20:18:00,79.2,75.3,29.97,N/A,-737280,0.0,0.0,88,0.00,,,0.03,Wunderground PWS Mod,2013-08-18 00:18:00,
2013-08-17 20:21:00,79.8,75.6,29.97,South,186,0.0,0.0,87,0.00,,,0.03,Wunderground PWS Mod,2013-08-18 00:21:00,
2013-08-17 20:28:00,79.6,75.4,29.97,South,186,0.0,0.0,87,0.00,,,0.03,Wunderground PWS Mod,2013-08-18 00:28:00,
2013-08-17 20:34:00,79.4,75.2,29.97,South,186,0.0,0.0,87,0.00,,,0.03,Wunderground PWS Mod,2013-08-18 00:34:00,
2013-08-17 20:40:00,79.2,75.3,29.97,South,186,0.0,0.0,88,0.00,,,0.03,Wunderground PWS Mod,2013-08-18 00:40:00,
2013-08-17 20:44:00,78.8,75.3,29.98,N/A,-737280,0.0,0.0,89,0.00,,,0.03,Wunderground PWS Mod,2013-08-18 00:44:00,
2013-08-17 20:46:00,78.8,75.3,29.98,N/A,-737280,0.0,0.0,89,0.00,,,0.03,Wunderground PWS Mod,2013-08-18 00:46:00,
2013-08-17 20:47:00,79.2,75.3,29.97,South,186,0.0,0.0,88,0.00,,,0.03,Wunderground PWS Mod,2013-08-18 00:47:00,
2013-08-17 20:48:00,78.8,75.3,29.98,N/A,-737280,0.0,0.0,89,0.00,,,0.03,Wunderground PWS Mod,2013-08-18 00:48:00,
2013-08-17 20:50:00,78.8,75.3,29.98,N/A,-737280,0.0,0.0,89,0.00,,,0.03,Wunderground PWS Mod,2013-08-18 00:50:00,
2013-08-17 20:52:00,79.2,75.3,29.98,South,186,0.0,0.0,88,0.00,,,0.03,Wunderground PWS Mod,2013-08-18 00:52:00,
2013-08-17 20:58:00,79.0,75.1,29.98,South,186,0.0,0.0,88,0.00,,,0.03,Wunderground PWS Mod,2013-08-18 00:58:00,
2013-08-17 21:05:00,78.8,74.9,29.98,South,186,0.0,0.0,88,0.00,,,0.03,Wunderground PWS Mod,2013-08-18 01:05:00,
2013-08-17 21:11:00,78.8,75.3,29.98,South,186,0.0,0.0,89,0.00,,,0.03,Wunderground PWS Mod,2013-08-18 01:11:00,
2013-08-17 21:16:00,78.5,75.3,29.99,N/A,-737280,0.0,0.0,90,0.00,,,0.03,Wunderground PWS Mod,2013-08-18 01:16:00,
2013-08-17 21:18:00,78.6,75.1,29.98,South,186,0.0,0.0,89,0.00,,,0.03,Wunderground PWS Mod,2013-08-18 01:18:00,
2013-08-17 21:24:00,78.6,75.1,29.98,South,186,0.0,0.0,89,0.00,,,0.03,Wunderground PWS Mod,2013-08-18 01:24:00,
2013-08-17 21:30:00,78.5,75.0,29.98,South,186,0.0,0.0,89,0.00,,,0.03,Wunderground PWS Mod,2013-08-18 01:30:00,
2013-08-17 21:36:00,78.5,75.3,29.98,South,186,0.0,0.0,90,0.00,,,0.03,Wunderground PWS Mod,2013-08-18 01:36:00,
2013-08-17 21:43:00,78.3,75.1,29.99,South,186,0.0,0.0,90,0.00,,,0.03,Wunderground PWS Mod,2013-08-18 01:43:00,
2013-08-17 21:44:00,77.7,74.5,29.99,N/A,-737280,0.0,0.0,90,0.00,,,0.03,Wunderground PWS Mod,2013-08-18 01:44:00,
2013-08-17 21:46:00,77.7,74.5,30.00,N/A,-737280,0.0,0.0,90,0.00,,,0.03,Wunderground PWS Mod,2013-08-18 01:46:00,
2013-08-17 21:48:00,78.1,74.9,29.99,South,186,0.0,0.0,90,0.00,,,0.03,Wunderground PWS Mod,2013-08-18 01:48:00,
2013-08-17 21:55:00,77.9,74.7,29.99,South,186,0.0,0.0,90,0.00,,,0.03,Wunderground PWS Mod,2013-08-18 01:55:00,
2013-08-17 22:01:00,77.9,74.7,29.99,South,186,0.0,0.0,90,0.00,,,0.03,Wunderground PWS Mod,2013-08-18 02:01:00,
2013-08-17 22:07:00,77.7,74.5,30.00,South,186,0.0,0.0,90,0.00,,,0.03,Wunderground PWS Mod,2013-08-18 02:07:00,
2013-08-17 22:14:00,77.7,74.5,30.00,South,186,0.0,0.0,90,0.00,,,0.03,Wunderground PWS Mod,2013-08-18 02:14:00,
2013-08-17 22:20:00,77.6,74.4,30.00,South,186,0.0,0.0,90,0.00,,,0.03,Wunderground PWS Mod,2013-08-18 02:20:00,
2013-08-17 22:26:00,77.4,74.2,30.00,South,186,0.0,0.0,90,0.00,,,0.03,Wunderground PWS Mod,2013-08-18 02:26:00,
2013-08-17 22:32:00,77.4,74.2,30.00,South,186,0.0,0.0,90,0.00,,,0.03,Wunderground PWS Mod,2013-08-18 02:32:00,
2013-08-17 22:39:00,77.2,74.0,29.99,South,186,0.0,0.0,90,0.00,,,0.03,Wunderground PWS Mod,2013-08-18 02:39:00,
2013-08-17 22:44:00,77.4,74.6,30.00,N/A,-737280,0.0,0.0,91,0.00,,,0.03,Wunderground PWS Mod,2013-08-18 02:44:00,
2013-08-17 22:45:00,77.4,74.2,29.99,South,186,0.0,0.0,90,0.00,,,0.03,Wunderground PWS Mod,2013-08-18 02:45:00,
2013-08-17 22:46:00,77.4,74.6,30.00,N/A,-737280,0.0,0.0,91,0.00,,,0.03,Wunderground PWS Mod,2013-08-18 02:46:00,
2013-08-17 22:48:00,77.4,74.6,30.00,N/A,-737280,0.0,0.0,91,0.00,,,0.03,Wunderground PWS Mod,2013-08-18 02:48:00,
2013-08-17 22:50:00,77.4,74.6,29.99,South,186,0.0,0.0,91,0.00,,,0.03,Wunderground PWS Mod,2013-08-18 02:50:00,
2013-08-17 22:57:00,77.4,74.2,30.00,South,186,0.0,0.0,90,0.00,,,0.03,Wunderground PWS Mod,2013-08-18 02:57:00,
2013-08-17 23:03:00,77.4,74.2,30.00,South,186,0.0,0.0,90,0.00,,,0.03,Wunderground PWS Mod,2013-08-18 03:03:00,
2013-08-17 23:09:00,77.4,74.6,30.00,South,186,0.0,0.0,91,0.00,,,0.03,Wunderground PWS Mod,2013-08-18 03:09:00,
2013-08-17 23:15:00,77.2,74.4,30.00,South,186,0.0,0.0,91,0.00,,,0.03,Wunderground PWS Mod,2013-08-18 03:15:00,
2013-08-17 23:16:00,77.2,74.4,30.01,N/A,-737280,0.0,0.0,91,0.00,,,0.03,Wunderground PWS Mod,2013-08-18 03:16:00,
2013-08-17 23:22:00,77.2,74.4,30.01,South,186,0.0,0.0,91,0.00,,,0.03,Wunderground PWS Mod,2013-08-18 03:22:00,
2013-08-17 23:28:00,77.2,74.4,30.01,South,186,0.0,0.0,91,0.00,,,0.03,Wunderground PWS Mod,2013-08-18 03:28:00,
2013-08-17 23:34:00,77.2,74.4,30.01,South,186,0.0,0.0,91,0.00,,,0.03,Wunderground PWS Mod,2013-08-18 03:34:00,
2013-08-17 23:41:00,77.2,74.4,30.01,South,186,0.0,0.0,91,0.00,,,0.03,Wunderground PWS Mod,2013-08-18 03:41:00,
2013-08-17 23:42:00,77.0,74.2,30.01,N/A,-737280,0.0,0.0,91,0.00,,,0.03,Wunderground PWS Mod,2013-08-18 03:42:00,
2013-08-17 23:48:00,77.2,74.4,30.01,South,186,0.0,0.0,91,0.00,,,0.03,Wunderground PWS Mod,2013-08-18 03:48:00,
2013-08-17 23:55:00,77.0,74.2,30.01,South,186,0.0,0.0,91,0.00,,,0.03,Wunderground PWS Mod,2013-08-18 03:55:00,